Time;durP1;ratioP1;P1;durP2;ratioP2;P2;SDS_P1;SDS_P2;PMS_P1;PMS_P2;Temp;Humidity;BMP_temperature;BMP_pressure;BME280_temperature;BME280_humidity;BME280_pressure;Samples;Min_cycle;Max_cycle;Signal;HPM_P1;HPM_P2
2023/05/12 00:00:25;;;;;;;12.23;7.80;;;13.10;99.90;;;;;;4824189;29;20054;-90
2023/05/12 00:02:50;;;;;;;10.90;7.57;;;13.10;99.90;;;;;;4824869;29;20116;-92
2023/05/12 00:05:16;;;;;;;12.75;7.65;;;13.10;99.90;;;;;;4829948;29;20558;-91
2023/05/12 00:07:42;;;;;;;14.20;7.63;;;13.10;99.90;;;;;;4824789;29;20060;-91
2023/05/12 00:10:08;;;;;;;11.10;8.10;;;13.10;99.90;;;;;;4825717;29;20228;-91
2023/05/12 00:12:36;;;;;;;13.98;7.80;;;13.10;99.90;;;;;;4826098;29;20488;-92
2023/05/12 00:15:02;;;;;;;13.40;7.43;;;13.10;99.90;;;;;;4830903;29;20046;-90
2023/05/12 00:17:28;;;;;;;14.90;7.90;;;13.10;99.90;;;;;;4827601;29;20057;-91
2023/05/12 00:19:54;;;;;;;14.07;7.43;;;13.10;99.90;;;;;;4816103;29;20535;-90
2023/05/12 00:22:20;;;;;;;15.05;8.63;;;13.10;99.90;;;;;;4828847;29;20051;-92
2023/05/12 00:24:45;;;;;;;16.83;8.20;;;13.10;99.90;;;;;;4825576;29;20514;-91
2023/05/12 00:27:12;;;;;;;10.32;7.60;;;13.10;99.90;;;;;;4826604;29;20050;-91
2023/05/12 00:29:38;;;;;;;13.77;7.60;;;13.20;99.90;;;;;;4826451;29;20141;-91
2023/05/12 00:32:04;;;;;;;16.00;7.95;;;13.20;99.90;;;;;;4827210;29;20189;-91
2023/05/12 00:34:30;;;;;;;18.08;8.38;;;13.20;99.90;;;;;;4828937;29;20046;-90
2023/05/12 00:36:56;;;;;;;16.58;9.02;;;13.10;99.90;;;;;;4841233;29;20513;-92
2023/05/12 00:39:22;;;;;;;15.40;8.75;;;13.10;99.90;;;;;;4842074;29;20050;-92
2023/05/12 00:41:49;;;;;;;15.60;9.88;;;13.10;99.90;;;;;;4826218;29;20053;-91
2023/05/12 00:44:14;;;;;;;11.77;7.45;;;13.20;99.90;;;;;;4824411;29;20050;-91
2023/05/12 00:46:40;;;;;;;14.80;9.55;;;13.10;99.90;;;;;;4829534;29;20083;-91
2023/05/12 00:49:06;;;;;;;18.30;9.27;;;13.10;99.90;;;;;;4825573;29;20090;-91
2023/05/12 00:51:32;;;;;;;16.05;9.00;;;13.20;99.90;;;;;;4823951;29;20043;-91
2023/05/12 00:53:58;;;;;;;19.73;9.13;;;13.10;99.90;;;;;;4826230;29;20061;-91
2023/05/12 00:56:24;;;;;;;14.20;8.60;;;13.20;99.90;;;;;;4816458;29;20054;-91
2023/05/12 00:58:50;;;;;;;19.23;9.25;;;13.20;99.90;;;;;;4806819;29;20091;-90
2023/05/12 01:01:16;;;;;;;19.00;10.82;;;13.10;99.90;;;;;;4821813;29;20089;-91
2023/05/12 01:03:43;;;;;;;17.25;9.63;;;13.20;99.90;;;;;;4823267;29;20496;-92
2023/05/12 01:06:15;;;;;;;23.38;11.80;;;13.20;99.90;;;;;;4826112;29;20079;-92
2023/05/12 01:08:42;;;;;;;23.70;10.70;;;13.20;99.90;;;;;;4826904;29;20054;-91
2023/05/12 01:11:07;;;;;;;22.98;13.02;;;13.20;99.90;;;;;;4837461;29;20126;-89
2023/05/12 01:13:33;;;;;;;28.63;18.27;;;13.20;99.90;;;;;;4825472;29;20107;-91
2023/05/12 01:16:01;;;;;;;27.20;16.33;;;13.20;99.90;;;;;;4832312;29;20053;-91
2023/05/12 01:18:28;;;;;;;20.45;10.93;;;13.20;99.90;;;;;;4842201;29;20050;-92
2023/05/12 01:20:55;;;;;;;22.02;11.85;;;13.20;99.90;;;;;;4842155;29;20050;-92
2023/05/12 01:23:29;;;;;;;29.13;15.05;;;13.20;99.90;;;;;;4842264;29;20407;-92
2023/05/12 01:26:00;;;;;;;25.85;13.05;;;13.20;99.90;;;;;;4841290;29;20072;-92
2023/05/12 01:28:26;;;;;;;22.88;12.38;;;13.20;99.90;;;;;;4826980;29;20047;-92
2023/05/12 01:30:53;;;;;;;23.58;12.32;;;13.20;99.90;;;;;;4822659;29;20450;-92
2023/05/12 01:33:21;;;;;;;29.15;19.27;;;13.20;99.90;;;;;;4824631;29;20062;-92
2023/05/12 01:35:47;;;;;;;23.65;12.38;;;13.20;99.90;;;;;;4825025;29;20126;-92
2023/05/12 01:38:12;;;;;;;25.10;14.45;;;13.20;99.90;;;;;;4823876;29;20141;-93
2023/05/12 01:40:38;;;;;;;27.83;15.35;;;13.20;99.90;;;;;;4823532;29;20058;-92
2023/05/12 01:43:04;;;;;;;23.83;14.10;;;13.20;99.90;;;;;;4823687;29;20102;-92
2023/05/12 01:45:42;;;;;;;27.73;14.55;;;13.10;99.90;;;;;;4824818;29;20047;-92
2023/05/12 01:48:07;;;;;;;26.52;14.32;;;13.20;99.90;;;;;;4823494;29;20057;-92
2023/05/12 01:50:33;;;;;;;29.23;18.63;;;13.20;99.90;;;;;;4823366;29;20047;-91
2023/05/12 01:52:59;;;;;;;24.83;14.75;;;13.20;99.90;;;;;;4823249;29;20046;-92
2023/05/12 01:55:24;;;;;;;25.63;16.25;;;13.20;99.90;;;;;;4823291;29;20046;-93
2023/05/12 01:57:50;;;;;;;31.08;17.77;;;13.20;99.90;;;;;;4823202;29;20043;-91
2023/05/12 02:00:16;;;;;;;33.13;19.25;;;13.20;99.90;;;;;;4822696;29;20051;-92
2023/05/12 02:02:42;;;;;;;28.30;18.13;;;13.20;99.90;;;;;;4829354;29;20422;-92
2023/05/12 02:05:08;;;;;;;25.35;15.70;;;13.20;99.90;;;;;;4843388;29;20045;-90
2023/05/12 02:07:36;;;;;;;26.42;16.65;;;13.20;99.90;;;;;;4838018;29;20058;-92
2023/05/12 02:10:08;;;;;;;25.92;16.95;;;13.20;99.90;;;;;;4837879;29;20491;-93
2023/05/12 02:12:57;;;;;;;30.98;20.27;;;13.20;99.90;;;;;;4838820;29;20491;-92
2023/05/12 02:15:53;;;;;;;31.92;17.40;;;13.20;99.90;;;;;;4824401;29;20131;-92
2023/05/12 02:18:19;;;;;;;28.77;17.70;;;13.20;99.90;;;;;;4836517;29;20129;-93
2023/05/12 02:20:47;;;;;;;30.48;19.42;;;13.10;99.90;;;;;;4846696;29;20141;-94
2023/05/12 02:23:15;;;;;;;29.92;17.02;;;13.10;99.90;;;;;;4844632;29;20125;-93
2023/05/12 02:25:58;;;;;;;;;;;;;;;;;;;;;
2023/05/12 02:29:20;;;;;;;28.85;17.50;;;13.20;99.90;;;;;;4845319;29;20053;-92
2023/05/12 02:31:29;;;;;;;27.70;16.35;;;13.10;99.90;;;;;;4829992;29;20086;-92
2023/05/12 02:36:47;;;;;;;32.00;17.20;;;13.10;99.90;;;;;;4838162;29;20054;-93
2023/05/12 02:39:19;;;;;;;32.42;19.05;;;13.10;99.90;;;;;;4846144;29;20133;-93
2023/05/12 02:41:45;;;;;;;33.55;17.15;;;13.10;99.90;;;;;;4845872;29;20127;-93
2023/05/12 02:44:21;;;;;;;;;;;;;;;;;;;;;
2023/05/12 02:47:03;;;;;;;31.70;19.65;;;13.20;99.90;;;;;;4825735;29;20062;-92
2023/05/12 02:49:31;;;;;;;33.20;18.52;;;13.20;99.90;;;;;;4826098;29;20050;-91
2023/05/12 02:52:23;;;;;;;;;;;;;;;;;;;;;
2023/05/12 02:54:58;;;;;;;35.67;18.85;;;13.20;99.90;;;;;;4826578;29;20055;-92
2023/05/12 02:57:48;;;;;;;26.67;18.35;;;13.10;99.90;;;;;;4801292;29;20143;-93
2023/05/12 03:00:16;;;;;;;35.92;21.75;;;13.20;99.90;;;;;;4844098;29;20050;-92
2023/05/12 03:03:09;;;;;;;;;;;;;;;;;;;;;
2023/05/12 03:09:39;;;;;;;34.92;19.33;;;13.10;99.90;;;;;;4824531;29;20085;-93
2023/05/12 03:12:08;;;;;;;36.30;21.20;;;13.10;99.90;;;;;;4825477;29;20054;-93
2023/05/12 03:17:41;;;;;;;31.63;19.45;;;13.10;99.90;;;;;;4860366;24;20073;-91
2023/05/12 03:20:09;;;;;;;32.58;19.90;;;13.20;99.90;;;;;;4845404;29;20046;-92
2023/05/12 03:22:35;;;;;;;31.95;20.67;;;13.10;99.90;;;;;;4826072;29;20142;-93
2023/05/12 03:25:04;;;;;;;32.20;20.08;;;13.10;99.90;;;;;;4845722;24;20141;-92
2023/05/12 03:27:45;;;;;;;;;;;;;;;;;;;;;
2023/05/12 03:30:48;;;;;;;39.95;22.20;;;13.10;99.90;;;;;;4839368;29;20050;-93
2023/05/12 03:33:16;;;;;;;35.42;21.88;;;13.10;99.90;;;;;;4818624;29;20064;-91
2023/05/12 03:39:41;;;;;;;;;;;;;;;;;;;;;
2023/05/12 03:42:50;;;;;;;32.65;20.13;;;13.10;99.90;;;;;;4838037;24;20052;-93
2023/05/12 03:45:31;;;;;;;;;;;;;;;;;;;;;
2023/05/12 03:48:09;;;;;;;33.50;20.63;;;13.10;99.90;;;;;;4823975;29;20066;-92
2023/05/12 03:51:03;;;;;;;35.65;20.85;;;13.10;99.90;;;;;;4831333;29;20106;-91
2023/05/12 03:53:29;;;;;;;33.63;20.75;;;13.10;99.90;;;;;;4820235;29;20568;-92
2023/05/12 03:56:04;;;;;;;36.50;21.73;;;13.10;99.90;;;;;;4825357;29;20058;-92
2023/05/12 03:58:30;;;;;;;31.30;22.23;;;13.10;99.90;;;;;;4825049;29;20132;-90
2023/05/12 04:01:44;;;;;;;34.15;21.35;;;13.20;99.90;;;;;;4825425;29;20114;-92
2023/05/12 04:04:10;;;;;;;;;;;13.10;99.90;;;;;;4828542;29;20606;-87
2023/05/12 04:06:36;;;;;;;31.90;21.83;;;13.10;99.90;;;;;;4824394;29;19925;-86
2023/05/12 04:09:01;;;;;;;35.67;23.23;;;13.10;99.90;;;;;;4824330;29;20050;-87
2023/05/12 04:11:27;;;;;;;35.40;22.45;;;13.10;99.90;;;;;;4825389;29;20046;-87
2023/05/12 04:14:02;;;;;;;38.45;22.02;;;13.10;99.90;;;;;;4827054;29;20523;-91
2023/05/12 04:16:47;;;;;;;38.70;23.05;;;13.10;99.90;;;;;;4833119;29;20042;-91
2023/05/12 04:19:13;;;;;;;34.17;22.90;;;13.20;99.90;;;;;;4824533;24;20058;-92
2023/05/12 04:22:12;;;;;;;34.30;22.95;;;13.20;99.90;;;;;;4837023;29;20574;-90
2023/05/12 04:28:29;;;;;;;34.88;22.40;;;13.10;99.90;;;;;;5141457;23;20110;-93
2023/05/12 04:30:55;;;;;;;35.47;23.75;;;13.10;99.90;;;;;;4843633;29;20125;-91
2023/05/12 04:33:20;;;;;;;38.95;23.85;;;13.20;99.90;;;;;;4843609;29;20141;-92
2023/05/12 04:35:46;;;;;;;41.03;24.63;;;13.20;99.90;;;;;;4843161;29;20049;-91
2023/05/12 04:38:14;;;;;;;36.47;23.20;;;13.20;99.90;;;;;;4843808;29;20053;-91
2023/05/12 04:40:40;;;;;;;37.40;23.83;;;13.20;99.90;;;;;;4842043;29;20049;-92
2023/05/12 04:43:09;;;;;;;44.13;28.08;;;13.20;99.90;;;;;;4841793;29;20376;-90
2023/05/12 04:45:34;;;;;;;33.55;22.58;;;13.20;99.90;;;;;;4833511;29;20125;-90
2023/05/12 04:48:00;;;;;;;35.95;23.30;;;13.20;99.90;;;;;;4854682;29;20559;-91
2023/05/12 04:50:28;;;;;;;39.78;23.15;;;13.20;99.90;;;;;;4823979;29;20046;-91
2023/05/12 04:52:56;;;;;;;31.17;22.73;;;13.20;99.90;;;;;;4824933;29;20082;-91
2023/05/12 04:55:44;;;;;;;39.72;26.90;;;13.20;99.90;;;;;;4824983;29;20476;-90
2023/05/12 04:58:13;;;;;;;34.15;22.63;;;13.20;99.90;;;;;;4823875;29;20522;-92
2023/05/12 05:00:39;;;;;;;36.35;25.20;;;13.20;99.90;;;;;;4823988;29;20399;-91
2023/05/12 05:03:07;;;;;;;37.33;24.20;;;13.20;99.90;;;;;;4823840;29;20141;-91
2023/05/12 05:05:32;;;;;;;36.95;24.33;;;13.20;99.90;;;;;;4823952;29;20050;-90
2023/05/12 05:07:58;;;;;;;35.22;22.23;;;13.10;99.90;;;;;;4854526;29;20099;-90
2023/05/12 05:10:24;;;;;;;37.83;23.27;;;13.20;99.90;;;;;;4853785;24;20563;-90
2023/05/12 05:12:50;;;;;;;32.13;22.88;;;13.20;99.90;;;;;;4842615;29;20046;-90
2023/05/12 05:15:15;;;;;;;34.15;22.90;;;13.20;99.90;;;;;;4842307;29;20053;-90
2023/05/12 05:17:42;;;;;;;38.33;24.23;;;13.20;99.90;;;;;;4841184;29;20543;-89
2023/05/12 05:20:08;;;;;;;35.00;22.83;;;13.20;99.90;;;;;;4842760;29;20050;-90
2023/05/12 05:22:34;;;;;;;31.05;23.00;;;13.20;99.90;;;;;;4841751;29;20050;-91
2023/05/12 05:25:02;;;;;;;40.25;25.23;;;13.30;99.90;;;;;;4842407;29;20050;-90
2023/05/12 05:27:31;;;;;;;36.47;23.48;;;13.20;99.90;;;;;;4841839;29;20042;-91
2023/05/12 05:29:56;;;;;;;35.55;23.55;;;13.20;99.90;;;;;;4843679;29;20042;-91
2023/05/12 05:32:23;;;;;;;37.50;23.40;;;13.20;99.90;;;;;;4843344;29;20061;-92
2023/05/12 05:34:49;;;;;;;35.65;22.27;;;13.30;99.90;;;;;;4841624;29;20046;-91
2023/05/12 05:37:26;;;;;;;;;;;;;;;;;;;;;
2023/05/12 05:40:02;;;;;;;35.08;22.77;;;13.20;99.90;;;;;;4836955;29;20142;-90
2023/05/12 05:42:28;;;;;;;31.15;22.30;;;13.20;99.90;;;;;;4842398;29;20101;-92
2023/05/12 05:44:53;;;;;;;34.47;24.15;;;13.20;99.90;;;;;;4841739;29;20535;-91
2023/05/12 05:47:19;;;;;;;30.23;21.92;;;13.20;99.90;;;;;;4842093;29;20388;-91
2023/05/12 05:49:45;;;;;;;32.65;22.15;;;13.30;99.90;;;;;;4841860;29;20046;-91
2023/05/12 05:52:10;;;;;;;33.10;23.00;;;13.30;99.90;;;;;;4843998;29;20042;-90
2023/05/12 05:54:36;;;;;;;32.60;23.10;;;13.30;99.90;;;;;;4845963;29;20083;-90
2023/05/12 05:57:05;;;;;;;32.90;21.25;;;13.30;99.90;;;;;;4846148;29;20054;-91
2023/05/12 05:59:31;;;;;;;33.47;22.45;;;13.30;99.90;;;;;;4846126;29;20528;-91
2023/05/12 06:01:56;;;;;;;33.88;22.98;;;13.30;99.90;;;;;;4845949;29;20053;-90
2023/05/12 06:04:22;;;;;;;36.58;24.25;;;13.40;99.90;;;;;;4846452;29;20415;-90
2023/05/12 06:06:48;;;;;;;34.17;22.80;;;13.30;99.90;;;;;;4844141;29;20057;-91
2023/05/12 06:09:14;;;;;;;30.73;21.45;;;13.30;99.90;;;;;;4844784;29;20061;-91
2023/05/12 06:11:40;;;;;;;39.67;26.25;;;13.40;99.90;;;;;;4845373;29;20069;-91
2023/05/12 06:14:06;;;;;;;35.95;22.75;;;13.40;99.90;;;;;;4845911;29;20435;-90
2023/05/12 06:16:31;;;;;;;30.25;22.30;;;13.40;99.90;;;;;;4845747;29;20061;-90
2023/05/12 06:18:57;;;;;;;36.50;24.23;;;13.40;99.90;;;;;;4846180;29;20077;-89
2023/05/12 06:21:23;;;;;;;34.13;22.80;;;13.40;99.90;;;;;;4845965;29;20483;-88
2023/05/12 06:23:50;;;;;;;33.50;21.45;;;13.40;99.90;;;;;;4845011;29;20057;-91
2023/05/12 06:26:20;;;;;;;33.85;23.05;;;13.40;99.90;;;;;;4846711;29;20046;-92
2023/05/12 06:28:45;;;;;;;28.52;21.27;;;13.40;99.90;;;;;;4845960;29;20060;-89
2023/05/12 06:31:11;;;;;;;31.13;22.63;;;13.40;99.90;;;;;;4846670;29;20491;-90
2023/05/12 06:33:37;;;;;;;34.08;23.20;;;13.40;99.90;;;;;;4846343;29;20041;-90
2023/05/12 06:36:03;;;;;;;31.55;22.75;;;13.40;99.90;;;;;;4844005;29;20057;-89
2023/05/12 06:38:29;;;;;;;31.23;22.25;;;13.40;99.90;;;;;;4845983;29;20076;-90
2023/05/12 06:40:56;;;;;;;34.45;22.83;;;13.50;99.90;;;;;;4844780;29;20487;-90
2023/05/12 06:43:22;;;;;;;34.17;22.63;;;13.50;99.90;;;;;;4845290;29;20049;-90
2023/05/12 06:45:48;;;;;;;30.90;22.23;;;13.50;99.90;;;;;;4843375;29;20054;-90
2023/05/12 06:48:13;;;;;;;35.75;24.90;;;13.50;99.90;;;;;;4845768;29;20050;-89
2023/05/12 06:50:39;;;;;;;32.13;22.85;;;13.50;99.90;;;;;;4845745;29;20042;-90
2023/05/12 06:53:06;;;;;;;33.42;22.15;;;13.50;99.90;;;;;;4843987;29;20102;-91
2023/05/12 06:55:32;;;;;;;31.35;22.48;;;13.50;99.90;;;;;;4843622;29;20058;-90
2023/05/12 06:57:58;;;;;;;35.92;25.40;;;13.60;99.90;;;;;;4844326;29;20070;-91
2023/05/12 07:00:25;;;;;;;30.77;22.27;;;13.60;99.90;;;;;;4845120;29;20054;-90
2023/05/12 07:02:51;;;;;;;32.05;22.38;;;13.50;99.90;;;;;;4843734;29;20479;-90
2023/05/12 07:05:17;;;;;;;31.33;21.52;;;13.60;99.90;;;;;;4844511;29;20053;-89
2023/05/12 07:07:43;;;;;;;35.20;23.80;;;13.50;99.90;;;;;;4843839;29;20042;-87
2023/05/12 07:10:10;;;;;;;33.60;22.90;;;13.60;99.90;;;;;;4843871;29;20057;-89
2023/05/12 07:12:37;;;;;;;33.38;22.33;;;13.50;99.90;;;;;;4843264;29;20050;-89
2023/05/12 07:15:04;;;;;;;29.80;21.77;;;13.60;99.90;;;;;;4845016;29;20537;-89
2023/05/12 07:17:30;;;;;;;31.65;21.67;;;13.60;99.90;;;;;;4845860;29;20057;-91
2023/05/12 07:19:56;;;;;;;32.47;23.25;;;13.60;99.90;;;;;;4844157;29;20050;-91
2023/05/12 07:22:22;;;;;;;30.20;22.00;;;13.60;99.90;;;;;;4844621;29;20089;-91
2023/05/12 07:24:48;;;;;;;30.48;21.77;;;13.60;99.90;;;;;;4844478;29;20061;-91
2023/05/12 07:27:14;;;;;;;34.85;24.58;;;13.60;99.90;;;;;;4845625;29;20041;-92
2023/05/12 07:29:40;;;;;;;28.05;21.50;;;13.60;99.90;;;;;;4845132;29;20132;-91
2023/05/12 07:32:06;;;;;;;33.97;19.63;;;13.60;99.90;;;;;;4845473;29;20125;-92
2023/05/12 07:34:32;;;;;;;31.60;21.60;;;13.60;99.90;;;;;;4844125;29;20042;-93
2023/05/12 07:37:01;;;;;;;32.50;23.42;;;13.60;99.90;;;;;;4844583;29;20511;-92
2023/05/12 07:40:09;;;;;;;32.25;22.98;;;13.60;99.90;;;;;;4844137;29;20453;-91
2023/05/12 07:42:35;;;;;;;28.17;21.63;;;13.60;99.90;;;;;;4845163;29;20486;-92
2023/05/12 07:45:01;;;;;;;31.73;22.55;;;13.60;99.90;;;;;;4851833;24;20057;-93
2023/05/12 07:47:27;;;;;;;31.80;22.98;;;13.60;99.90;;;;;;4845083;29;20144;-93
2023/05/12 07:49:53;;;;;;;30.98;24.38;;;13.60;99.90;;;;;;4843708;29;20061;-93
2023/05/12 07:52:24;;;;;;;32.90;24.70;;;13.70;99.90;;;;;;4843639;29;20129;-93
2023/05/12 07:54:55;;;;;;;30.27;22.30;;;13.70;99.90;;;;;;4843752;29;20048;-92
2023/05/12 07:57:20;;;;;;;35.58;25.65;;;13.70;99.90;;;;;;4844956;29;20513;-91
2023/05/12 07:59:48;;;;;;;30.05;23.17;;;13.70;99.90;;;;;;4834305;29;20050;-92
2023/05/12 08:02:19;;;;;;;29.67;22.45;;;13.80;99.90;;;;;;4857802;29;20404;-92
2023/05/12 08:04:45;;;;;;;37.00;26.60;;;13.80;99.90;;;;;;4833272;29;20046;-92
2023/05/12 08:07:13;;;;;;;36.45;27.48;;;13.80;99.90;;;;;;4834948;24;20057;-91
2023/05/12 08:09:54;;;;;;;;;;;;;;;;;;;;;
2023/05/12 08:12:41;;;;;;;32.63;23.90;;;13.90;99.90;;;;;;4823178;29;20061;-90
2023/05/12 08:15:08;;;;;;;29.55;22.92;;;14.00;99.90;;;;;;4824195;29;20046;-93
2023/05/12 08:17:34;;;;;;;38.88;27.02;;;14.00;99.90;;;;;;4824818;29;20050;-92
2023/05/12 08:20:05;;;;;;;29.90;22.13;;;14.10;99.90;;;;;;4826097;29;20045;-92
2023/05/12 08:22:31;;;;;;;30.48;22.48;;;14.10;99.90;;;;;;4825318;29;20395;-92
2023/05/12 08:24:57;;;;;;;29.50;21.60;;;14.20;99.90;;;;;;4825109;29;20133;-92
2023/05/12 08:33:35;;;;;;;32.50;25.42;;;14.30;99.90;;;;;;4814160;29;20062;-92
2023/05/12 08:36:24;;;;;;;;;;;;;;;;;;;;;
2023/05/12 08:42:35;;;;;;;34.97;26.88;;;14.40;99.90;;;;;;4825986;29;20050;-92
2023/05/12 08:45:42;;;;;;;34.55;24.92;;;14.50;99.90;;;;;;4824570;29;20044;-93
2023/05/12 08:48:51;;;;;;;;;;;;;;;;;;;;;
2023/05/12 08:51:54;;;;;;;;;;;;;;;;;;;;;
2023/05/12 08:58:07;;;;;;;29.05;23.10;;;14.80;99.90;;;;;;4814478;29;20050;-93
2023/05/12 09:01:01;;;;;;;38.83;27.85;;;14.90;99.90;;;;;;4800515;29;20472;-93
2023/05/12 09:03:27;;;;;;;34.47;25.02;;;14.90;99.90;;;;;;4824109;29;20046;-89
2023/05/12 09:06:02;;;;;;;31.45;24.35;;;15.00;99.90;;;;;;4824100;29;20495;-92
2023/05/12 09:08:31;;;;;;;31.52;23.98;;;15.10;99.90;;;;;;4806899;29;20047;-92
2023/05/12 09:18:37;;;;;;;34.67;27.48;;;15.30;99.90;;;;;;4822174;29;20057;-92
2023/05/12 09:21:03;;;;;;;31.92;25.00;;;15.40;99.90;;;;;;4807673;29;20054;-90
2023/05/12 09:23:49;;;;;;;30.58;24.92;;;15.50;99.90;;;;;;4808064;29;20057;-91
2023/05/12 09:26:15;;;;;;;30.05;23.08;;;15.60;99.90;;;;;;4813561;29;20186;-92
2023/05/12 09:28:41;;;;;;;26.88;22.63;;;15.70;99.90;;;;;;4823294;29;20071;-92
2023/05/12 09:31:23;;;;;;;32.53;25.90;;;15.80;99.90;;;;;;4822536;29;20107;-93
2023/05/12 09:33:50;;;;;;;29.80;25.73;;;15.90;99.90;;;;;;4818535;29;20057;-92
2023/05/12 09:36:18;;;;;;;34.17;28.23;;;16.00;99.90;;;;;;4838225;29;20065;-92
2023/05/12 09:38:44;;;;;;;27.65;23.98;;;16.10;99.90;;;;;;4819089;29;20129;-92
2023/05/12 09:41:09;;;;;;;24.98;21.10;;;16.20;99.90;;;;;;4823495;29;20598;-92
2023/05/12 09:43:36;;;;;;;26.52;21.13;;;16.20;99.90;;;;;;4824275;29;20125;-92
2023/05/12 09:46:05;;;;;;;24.63;21.42;;;16.30;99.90;;;;;;4822788;29;20078;-92
2023/05/12 09:48:31;;;;;;;23.77;20.95;;;16.30;99.90;;;;;;4823334;29;20499;-92
2023/05/12 09:50:57;;;;;;;23.80;21.17;;;16.40;99.90;;;;;;4823543;29;20050;-92
2023/05/12 09:53:23;;;;;;;29.38;23.10;;;16.40;99.90;;;;;;4822645;29;20053;-92
2023/05/12 09:55:49;;;;;;;29.23;25.35;;;16.50;99.90;;;;;;4823220;29;20058;-91
2023/05/12 09:58:17;;;;;;;29.40;24.48;;;16.60;99.90;;;;;;4823015;29;20522;-93
2023/05/12 10:00:43;;;;;;;24.20;21.27;;;16.70;99.90;;;;;;4811335;29;20159;-92
2023/05/12 10:03:14;;;;;;;23.38;20.88;;;16.80;99.90;;;;;;4811290;29;20395;-92
2023/05/12 10:06:01;;;;;;;24.63;21.38;;;16.80;99.90;;;;;;4823021;29;20137;-92
2023/05/12 10:08:33;;;;;;;27.02;22.73;;;17.00;99.90;;;;;;4819741;29;20061;-93
2023/05/12 10:11:03;;;;;;;28.07;23.17;;;17.10;99.90;;;;;;4811649;29;20034;-93
2023/05/12 10:13:31;;;;;;;22.02;19.60;;;17.10;99.90;;;;;;4823383;29;20403;-93
2023/05/12 10:15:57;;;;;;;22.40;19.67;;;17.30;99.90;;;;;;4823659;29;20039;-93
2023/05/12 10:18:24;;;;;;;22.20;19.83;;;17.30;99.90;;;;;;4824887;29;20074;-94
2023/05/12 10:20:52;;;;;;;23.92;20.77;;;17.40;99.90;;;;;;4822434;29;20047;-94
2023/05/12 10:23:19;;;;;;;24.33;19.48;;;17.50;99.90;;;;;;4823479;29;20138;-93
2023/05/12 10:25:46;;;;;;;22.40;19.83;;;17.60;99.90;;;;;;4823706;29;20123;-93
2023/05/12 10:28:12;;;;;;;25.95;20.92;;;17.70;99.90;;;;;;4822786;29;20116;-94
2023/05/12 10:30:39;;;;;;;25.02;21.65;;;17.80;99.90;;;;;;4824352;29;20054;-93
2023/05/12 10:33:07;;;;;;;22.23;19.83;;;17.90;99.90;;;;;;4823661;29;20106;-94
2023/05/12 10:35:38;;;;;;;21.35;18.88;;;18.00;99.90;;;;;;4822783;29;20050;-94
2023/05/12 10:38:26;;;;;;;22.48;18.42;;;18.10;99.90;;;;;;4825615;29;20042;-93
2023/05/12 10:41:00;;;;;;;19.88;17.88;;;18.20;99.90;;;;;;4825785;29;20054;-94
2023/05/12 10:43:46;;;;;;;22.02;17.20;;;18.30;99.90;;;;;;4828037;29;20054;-94
2023/05/12 10:46:16;;;;;;;19.48;17.45;;;18.40;99.90;;;;;;4827066;29;20053;-94
2023/05/12 10:48:50;;;;;;;17.08;15.18;;;18.50;99.90;;;;;;4826936;29;20527;-94
2023/05/12 10:51:21;;;;;;;18.15;15.25;;;18.60;99.90;;;;;;4827806;29;20089;-94
2023/05/12 10:53:50;;;;;;;17.55;14.98;;;18.60;99.90;;;;;;4826273;29;20045;-93
2023/05/12 10:56:25;;;;;;;18.73;15.07;;;18.70;99.90;;;;;;4827026;29;20046;-94
2023/05/12 10:59:12;;;;;;;16.88;15.18;;;18.70;99.90;;;;;;4826169;29;20198;-93
2023/05/12 11:01:57;;;;;;;16.63;14.50;;;18.80;99.90;;;;;;4825594;29;20050;-94
2023/05/12 11:04:35;;;;;;;16.65;13.50;;;18.90;99.90;;;;;;4826640;29;20051;-93
2023/05/12 11:07:02;;;;;;;17.77;14.70;;;19.00;99.90;;;;;;4827001;29;20062;-94
2023/05/12 11:09:28;;;;;;;18.00;13.88;;;19.00;99.90;;;;;;4841064;29;20411;-94
2023/05/12 11:11:54;;;;;;;18.23;13.82;;;19.10;99.90;;;;;;4846995;24;20053;-94
2023/05/12 11:14:24;;;;;;;15.25;13.65;;;19.20;99.90;;;;;;4845450;29;20042;-94
2023/05/12 11:16:52;;;;;;;16.33;13.45;;;19.30;99.90;;;;;;4843937;29;20497;-94
2023/05/12 11:19:18;;;;;;;16.15;14.05;;;19.30;99.90;;;;;;4845205;29;20049;-93
2023/05/12 11:21:43;;;;;;;16.27;12.98;;;19.40;99.90;;;;;;4844239;29;20045;-94
2023/05/12 11:24:09;;;;;;;14.45;12.57;;;19.40;99.90;;;;;;4845044;29;20049;-93
2023/05/12 11:26:35;;;;;;;15.77;13.38;;;19.50;99.90;;;;;;4844508;29;20093;-94
2023/05/12 11:29:05;;;;;;;14.88;13.35;;;19.60;99.90;;;;;;4845528;29;20514;-93
2023/05/12 11:32:12;;;;;;;14.35;12.80;;;19.60;99.90;;;;;;4844003;29;20089;-93
2023/05/12 11:34:38;;;;;;;14.57;12.75;;;19.70;99.90;;;;;;4799735;29;20050;-94
2023/05/12 11:37:47;;;;;;;15.00;13.23;;;19.70;99.90;;;;;;4791951;29;20059;-94
2023/05/12 11:40:40;;;;;;;14.75;11.35;;;19.80;99.90;;;;;;4805341;29;20130;-93
2023/05/12 11:43:09;;;;;;;13.80;12.35;;;19.80;99.90;;;;;;4797991;29;20066;-91
2023/05/12 11:45:35;;;;;;;14.10;11.98;;;19.90;99.90;;;;;;4804280;29;20147;-89
2023/05/12 11:48:11;;;;;;;15.07;12.88;;;20.00;99.90;;;;;;4782643;29;20051;-90
2023/05/12 11:50:43;;;;;;;13.18;11.75;;;20.00;99.90;;;;;;4841945;29;20129;-91
2023/05/12 11:53:18;;;;;;;11.70;9.88;;;20.00;99.90;;;;;;4841888;29;20124;-89
2023/05/12 11:55:51;;;;;;;13.90;11.68;;;20.10;99.90;;;;;;4842451;29;20129;-88
2023/05/12 11:58:24;;;;;;;12.68;10.68;;;20.20;99.90;;;;;;4843791;29;20041;-88
2023/05/12 12:00:50;;;;;;;12.13;10.73;;;20.30;99.90;;;;;;4843856;29;20460;-91
2023/05/12 12:03:16;;;;;;;11.05;9.25;;;20.30;99.90;;;;;;4844270;29;20042;-90
2023/05/12 12:06:02;;;;;;;13.15;9.85;;;20.40;99.90;;;;;;4840257;29;20058;-90
2023/05/12 12:08:33;;;;;;;11.25;8.10;;;20.40;99.90;;;;;;4841791;29;20045;-89
2023/05/12 12:10:58;;;;;;;11.38;10.10;;;20.50;99.40;;;;;;4842404;29;20062;-89
2023/05/12 12:13:25;;;;;;;11.50;8.73;;;20.50;99.90;;;;;;4843082;29;20052;-91
2023/05/12 12:15:51;;;;;;;10.43;6.32;;;20.60;99.90;;;;;;4830484;29;20146;-91
2023/05/12 12:18:17;;;;;;;10.02;8.80;;;20.60;98.60;;;;;;4855242;29;20369;-89
2023/05/12 12:20:48;;;;;;;8.40;6.07;;;20.70;99.30;;;;;;4825201;29;20043;-90
2023/05/12 12:23:23;;;;;;;9.57;7.90;;;20.80;98.20;;;;;;4824733;29;20046;-91
2023/05/12 12:26:02;;;;;;;7.75;5.43;;;20.80;99.00;;;;;;4854872;29;20043;-91
2023/05/12 12:28:27;;;;;;;10.85;6.95;;;20.90;98.70;;;;;;4824657;29;20086;-92
2023/05/12 12:30:53;;;;;;;9.82;7.40;;;21.00;99.30;;;;;;4825378;29;20084;-91
2023/05/12 12:33:31;;;;;;;9.55;8.55;;;21.00;99.50;;;;;;4824862;29;20110;-91
2023/05/12 12:35:57;;;;;;;12.07;5.90;;;21.10;99.90;;;;;;4839407;29;20046;-90
2023/05/12 12:44:30;;;;;;;9.45;6.35;;;21.20;97.60;;;;;;4917889;24;21224;-92
2023/05/12 12:50:03;;;;;;;9.77;4.90;;;21.30;97.80;;;;;;4889835;24;20510;-92
2023/05/12 12:54:05;;;;;;;;;;;;;;;;;;;;;
2023/05/12 12:56:54;;;;;;;8.77;4.93;;;21.40;96.90;;;;;;4790425;29;20136;-93
2023/05/12 13:03:13;;;;;;;6.30;4.90;;;21.50;97.70;;;;;;4840681;29;20050;-93
2023/05/12 13:05:49;;;;;;;8.55;4.20;;;21.60;97.70;;;;;;4839109;24;20050;-93
2023/05/12 13:08:18;;;;;;;7.18;4.60;;;21.60;96.50;;;;;;4822783;29;20084;-91
2023/05/12 13:11:11;;;;;;;5.57;3.50;;;21.70;97.00;;;;;;4825233;29;20050;-93
2023/05/12 13:13:46;;;;;;;7.22;4.47;;;21.70;95.90;;;;;;4831283;24;20050;-92
2023/05/12 13:16:20;;;;;;;7.13;4.75;;;21.80;97.40;;;;;;4841012;29;20058;-91
2023/05/12 13:18:46;;;;;;;7.72;4.20;;;21.80;98.10;;;;;;4841758;29;20479;-92
2023/05/12 13:21:23;;;;;;;9.13;4.13;;;21.90;98.00;;;;;;4839500;29;20053;-93
2023/05/12 13:23:49;;;;;;;5.38;3.30;;;21.90;98.10;;;;;;4823044;29;20056;-93
2023/05/12 13:26:15;;;;;;;5.20;3.38;;;21.90;96.10;;;;;;4825387;29;20073;-92
2023/05/12 13:28:41;;;;;;;5.15;3.55;;;21.90;96.70;;;;;;4825265;29;20154;-92
2023/05/12 13:31:06;;;;;;;8.57;4.20;;;22.00;97.20;;;;;;4830772;29;20054;-92
2023/05/12 13:33:32;;;;;;;6.00;3.80;;;22.00;98.80;;;;;;4834962;29;20042;-90
2023/05/12 13:36:07;;;;;;;5.50;2.90;;;22.00;98.40;;;;;;4842798;29;20042;-92
2023/05/12 13:38:33;;;;;;;5.43;3.40;;;22.00;96.10;;;;;;4838634;29;20049;-93
2023/05/12 13:40:58;;;;;;;5.50;3.30;;;22.00;97.80;;;;;;4824959;29;20054;-94
2023/05/12 13:43:36;;;;;;;6.03;3.50;;;22.00;97.60;;;;;;4823041;29;20110;-90
2023/05/12 13:46:01;;;;;;;7.20;4.00;;;22.00;97.70;;;;;;4823599;29;20110;-91
2023/05/12 13:51:04;;;;;;;7.47;3.40;;;22.10;99.70;;;;;;4848683;24;20515;-94
2023/05/12 13:53:31;;;;;;;5.85;3.70;;;22.10;99.80;;;;;;4841909;29;20116;-91
2023/05/12 13:55:56;;;;;;;7.75;3.58;;;22.10;99.90;;;;;;4843056;29;20057;-91
2023/05/12 13:58:22;;;;;;;7.18;3.53;;;22.20;99.90;;;;;;4842423;29;20445;-90